Time;durP1;ratioP1;P1;durP2;ratioP2;P2;SDS_P1;SDS_P2;PMS_P1;PMS_P2;Temp;Humidity;BMP_temperature;BMP_pressure;BME280_temperature;BME280_humidity;BME280_pressure;Samples;Min_cycle;Max_cycle;Signal;HPM_P1;HPM_P2
2023/08/19 00:00:00;;;;;;;6.50;5.73;;;20.60;99.90;;;;;;5049155;28;20567;-56
2023/08/19 00:02:26;;;;;;;8.50;6.23;;;20.60;99.90;;;;;;5052628;28;20971;-58
2023/08/19 00:04:53;;;;;;;9.00;6.10;;;20.50;99.90;;;;;;5049933;28;20501;-51
2023/08/19 00:07:19;;;;;;;5.90;5.40;;;20.50;99.90;;;;;;5049414;28;20489;-52
2023/08/19 00:09:46;;;;;;;5.80;5.30;;;20.50;99.90;;;;;;5041072;28;20509;-52
2023/08/19 00:12:12;;;;;;;7.70;6.77;;;20.50;99.90;;;;;;5052890;28;20561;-58
2023/08/19 00:14:40;;;;;;;7.40;5.30;;;20.50;99.90;;;;;;5042392;28;20493;-59
2023/08/19 00:17:07;;;;;;;5.90;5.40;;;20.40;99.90;;;;;;5050277;28;20497;-51
2023/08/19 00:19:33;;;;;;;10.73;6.20;;;20.40;99.90;;;;;;5051207;28;20520;-52
2023/08/19 00:22:01;;;;;;;7.87;6.00;;;20.40;99.90;;;;;;5055322;28;20465;-53
2023/08/19 00:24:27;;;;;;;7.27;5.63;;;20.40;99.90;;;;;;5050782;28;20494;-57
2023/08/19 00:26:54;;;;;;;13.10;6.20;;;20.30;99.90;;;;;;5059021;28;21023;-58
2023/08/19 00:29:21;;;;;;;9.37;6.07;;;20.30;99.90;;;;;;5047939;28;21066;-55
2023/08/19 00:31:49;;;;;;;6.83;6.23;;;20.30;99.90;;;;;;5050939;28;20474;-52
2023/08/19 00:34:15;;;;;;;6.37;5.77;;;20.30;99.90;;;;;;5047919;28;20457;-58
2023/08/19 00:36:42;;;;;;;5.83;5.33;;;20.20;99.90;;;;;;5057632;28;20485;-53
2023/08/19 00:39:09;;;;;;;6.63;5.80;;;20.30;99.90;;;;;;5059047;28;20491;-52
2023/08/19 00:41:35;;;;;;;7.60;5.87;;;20.20;99.90;;;;;;5053651;28;20461;-58
2023/08/19 00:44:03;;;;;;;6.50;5.90;;;20.20;99.90;;;;;;5052161;28;20502;-55
2023/08/19 00:46:30;;;;;;;9.33;5.73;;;20.20;99.90;;;;;;5054286;28;21180;-53
2023/08/19 00:48:59;;;;;;;6.30;5.70;;;20.10;99.90;;;;;;5054278;28;20506;-52
2023/08/19 00:51:26;;;;;;;7.37;5.83;;;20.10;99.90;;;;;;5051188;28;20457;-56
2023/08/19 00:53:54;;;;;;;5.93;5.23;;;20.10;99.90;;;;;;5051267;28;20540;-58
2023/08/19 00:56:20;;;;;;;23.20;6.07;;;20.00;99.90;;;;;;5042455;28;20485;-59
2023/08/19 00:58:47;;;;;;;8.43;6.20;;;20.00;99.90;;;;;;5053673;28;20497;-59
2023/08/19 01:01:13;;;;;;;6.33;5.73;;;20.00;99.90;;;;;;5048204;28;20493;-58
2023/08/19 01:03:40;;;;;;;8.07;6.17;;;20.00;99.90;;;;;;5051614;28;20466;-59
2023/08/19 01:06:22;;;;;;;6.83;6.13;;;19.90;99.90;;;;;;5039910;28;20902;-56
2023/08/19 01:08:59;;;;;;;8.30;6.40;;;20.00;99.90;;;;;;5042752;28;20513;-52
2023/08/19 01:11:41;;;;;;;11.10;6.40;;;19.90;99.90;;;;;;5049674;28;20947;-55
2023/08/19 01:14:15;;;;;;;7.23;5.93;;;19.90;99.90;;;;;;5053709;28;20477;-53
2023/08/19 01:16:47;;;;;;;6.77;6.07;;;19.90;99.90;;;;;;5049090;28;20955;-52
2023/08/19 01:19:23;;;;;;;7.40;6.53;;;19.80;99.90;;;;;;5049874;28;20478;-53
2023/08/19 01:21:53;;;;;;;7.00;6.40;;;19.80;99.90;;;;;;5049390;28;20489;-52
2023/08/19 01:24:22;;;;;;;11.40;6.60;;;19.80;99.90;;;;;;5046929;28;20498;-55
2023/08/19 01:26:50;;;;;;;9.20;5.83;;;19.70;99.90;;;;;;5040505;28;20553;-57
2023/08/19 01:29:17;;;;;;;11.40;6.60;;;19.80;99.90;;;;;;5051451;28;20518;-52
2023/08/19 01:31:43;;;;;;;6.90;6.30;;;19.70;99.90;;;;;;5053872;28;20473;-52
2023/08/19 01:34:10;;;;;;;7.73;5.80;;;19.70;99.90;;;;;;5045001;28;20963;-58
2023/08/19 01:36:42;;;;;;;6.70;6.03;;;19.70;99.90;;;;;;5052325;28;20492;-51
2023/08/19 01:39:10;;;;;;;6.50;5.70;;;19.70;99.90;;;;;;5057684;28;20488;-52
2023/08/19 01:41:38;;;;;;;8.90;6.40;;;19.70;99.90;;;;;;5059441;28;20493;-55
2023/08/19 01:44:06;;;;;;;7.43;6.63;;;19.60;99.90;;;;;;5052985;28;20501;-59
2023/08/19 01:46:33;;;;;;;6.30;5.70;;;19.60;99.90;;;;;;5053628;28;20542;-52
2023/08/19 01:49:00;;;;;;;6.50;6.00;;;19.60;99.90;;;;;;5056196;28;20489;-52
2023/08/19 01:51:28;;;;;;;7.33;6.63;;;19.60;99.90;;;;;;5054420;28;20455;-57
2023/08/19 01:53:55;;;;;;;7.00;6.40;;;19.50;99.90;;;;;;5040773;28;20469;-57
2023/08/19 01:56:21;;;;;;;7.73;6.20;;;19.50;99.90;;;;;;5051786;28;20470;-57
2023/08/19 01:58:48;;;;;;;7.20;6.50;;;19.50;99.90;;;;;;5053957;28;20477;-52
2023/08/19 02:01:16;;;;;;;8.53;6.43;;;19.50;99.90;;;;;;5051802;28;20501;-53
2023/08/19 02:03:42;;;;;;;9.93;6.80;;;19.50;99.90;;;;;;5050194;28;20508;-51
2023/08/19 02:06:09;;;;;;;7.10;6.00;;;19.40;99.90;;;;;;5056736;28;20978;-58
2023/08/19 02:08:35;;;;;;;7.27;6.57;;;19.40;99.90;;;;;;5047535;28;20545;-57
2023/08/19 02:11:02;;;;;;;8.23;6.03;;;19.40;99.90;;;;;;5045761;28;20522;-58
2023/08/19 02:13:29;;;;;;;9.47;6.73;;;19.40;99.90;;;;;;5051211;28;20552;-59
2023/08/19 02:15:55;;;;;;;6.87;6.27;;;19.40;99.90;;;;;;5047536;28;20519;-58
2023/08/19 02:18:23;;;;;;;7.90;6.97;;;19.30;99.90;;;;;;5057259;28;20872;-57
2023/08/19 02:20:50;;;;;;;11.17;8.17;;;19.40;99.90;;;;;;5049175;28;20521;-57
2023/08/19 02:23:16;;;;;;;7.37;6.77;;;19.30;99.90;;;;;;5050553;28;20551;-56
2023/08/19 02:25:43;;;;;;;8.90;8.00;;;19.30;99.90;;;;;;5051450;28;20430;-56
2023/08/19 02:28:09;;;;;;;6.90;6.30;;;19.20;99.90;;;;;;5051632;28;20453;-56
2023/08/19 02:30:36;;;;;;;9.97;6.97;;;19.20;99.90;;;;;;5052532;28;20517;-55
2023/08/19 02:33:05;;;;;;;8.53;6.73;;;19.20;99.90;;;;;;5053887;28;20465;-55
2023/08/19 02:35:33;;;;;;;7.33;6.67;;;19.20;99.90;;;;;;5037363;28;20854;-55
2023/08/19 02:38:00;;;;;;;7.70;6.63;;;19.20;99.90;;;;;;5052350;28;20496;-56
2023/08/19 02:40:28;;;;;;;9.53;6.97;;;19.10;99.90;;;;;;5048331;28;20481;-55
2023/08/19 02:42:55;;;;;;;8.40;5.83;;;19.20;99.90;;;;;;5054533;28;20453;-55
2023/08/19 02:45:21;;;;;;;8.43;6.50;;;19.10;99.90;;;;;;5054379;28;20882;-55
2023/08/19 02:47:48;;;;;;;6.10;5.60;;;19.10;99.90;;;;;;5058278;28;20492;-55
2023/08/19 02:50:14;;;;;;;7.40;6.50;;;19.10;99.90;;;;;;5047831;28;20611;-55
2023/08/19 02:52:42;;;;;;;8.33;6.90;;;19.10;99.90;;;;;;5053751;28;20543;-55
2023/08/19 02:55:09;;;;;;;10.33;7.00;;;19.10;99.90;;;;;;5050049;28;20544;-56
2023/08/19 02:57:35;;;;;;;8.87;6.90;;;19.00;99.90;;;;;;5051052;28;20474;-56
2023/08/19 03:00:02;;;;;;;11.20;7.10;;;19.00;99.90;;;;;;5047738;28;20510;-55
2023/08/19 03:02:28;;;;;;;7.77;6.97;;;19.00;99.90;;;;;;5057687;28;20458;-55
2023/08/19 03:04:55;;;;;;;7.50;6.80;;;19.00;99.90;;;;;;5043173;28;20466;-56
2023/08/19 03:07:22;;;;;;;7.73;7.03;;;19.00;99.90;;;;;;5044679;28;20453;-55
2023/08/19 03:09:49;;;;;;;8.13;7.43;;;18.90;99.90;;;;;;5048402;28;20533;-55
2023/08/19 03:12:16;;;;;;;11.07;8.13;;;18.90;99.90;;;;;;5050561;28;20496;-55
2023/08/19 03:14:42;;;;;;;7.87;7.20;;;18.90;99.90;;;;;;5051764;28;20465;-55
2023/08/19 03:17:09;;;;;;;9.40;7.00;;;18.90;99.90;;;;;;5043111;28;20884;-56
2023/08/19 03:19:35;;;;;;;9.53;7.43;;;18.90;99.90;;;;;;5054787;22;20473;-52
2023/08/19 03:22:02;;;;;;;7.90;7.10;;;18.90;99.90;;;;;;5014118;28;20542;-52
2023/08/19 03:24:29;;;;;;;7.90;7.07;;;18.80;99.90;;;;;;5010638;28;20522;-51
2023/08/19 03:26:56;;;;;;;9.23;7.60;;;18.80;99.90;;;;;;5012428;28;20995;-52
2023/08/19 03:29:24;;;;;;;7.67;6.97;;;18.80;99.90;;;;;;5018330;28;20463;-53
2023/08/19 03:31:51;;;;;;;14.60;7.67;;;18.80;99.90;;;;;;5009106;28;20527;-51
2023/08/19 03:34:18;;;;;;;8.37;7.57;;;18.80;99.90;;;;;;5007686;28;20436;-52
2023/08/19 03:36:44;;;;;;;8.67;7.83;;;18.80;99.90;;;;;;4994576;28;20464;-52
2023/08/19 03:39:11;;;;;;;10.40;6.80;;;18.80;99.90;;;;;;5010371;28;20503;-53
2023/08/19 03:41:37;;;;;;;8.60;7.50;;;18.80;99.90;;;;;;5005564;28;20988;-53
2023/08/19 03:44:06;;;;;;;9.00;8.10;;;18.80;99.90;;;;;;5011714;28;20509;-52
2023/08/19 03:46:32;;;;;;;10.97;7.63;;;18.80;99.90;;;;;;5001390;28;20984;-51
2023/08/19 03:48:59;;;;;;;8.03;7.43;;;18.70;99.90;;;;;;5006325;28;20518;-51
2023/08/19 03:51:26;;;;;;;8.80;8.00;;;18.80;99.90;;;;;;5010443;28;20515;-52
2023/08/19 03:53:53;;;;;;;9.40;8.50;;;18.80;99.90;;;;;;4993135;28;20526;-51
2023/08/19 03:56:19;;;;;;;8.23;7.43;;;18.80;99.90;;;;;;5004268;28;20495;-52
2023/08/19 03:58:46;;;;;;;10.90;7.80;;;18.80;99.90;;;;;;5011726;28;20904;-53
2023/08/19 04:01:14;;;;;;;8.40;7.60;;;18.80;99.90;;;;;;5018926;28;20533;-52
2023/08/19 04:03:41;;;;;;;9.03;8.23;;;18.80;99.90;;;;;;5005414;28;20455;-51
2023/08/19 04:06:07;;;;;;;13.60;8.37;;;18.80;99.90;;;;;;5008320;28;20491;-51
2023/08/19 04:08:34;;;;;;;12.07;7.83;;;18.80;99.90;;;;;;5007484;28;20510;-50
2023/08/19 04:11:07;;;;;;;9.23;8.33;;;18.80;99.90;;;;;;5008704;28;20586;-53
2023/08/19 04:13:34;;;;;;;8.80;8.00;;;18.90;99.90;;;;;;5016602;28;20492;-52
2023/08/19 04:16:04;;;;;;;10.30;8.20;;;18.80;99.90;;;;;;5015097;28;20466;-53
2023/08/19 04:18:33;;;;;;;9.70;8.70;;;18.90;99.90;;;;;;5006880;28;20467;-52
2023/08/19 04:21:03;;;;;;;8.82;8.02;;;18.90;99.90;;;;;;5012932;28;20465;-52
2023/08/19 04:23:30;;;;;;;9.60;8.50;;;18.90;99.90;;;;;;5018248;28;20224;-53
2023/08/19 04:25:56;;;;;;;9.10;8.20;;;18.90;99.90;;;;;;5012546;28;20451;-53
2023/08/19 04:28:23;;;;;;;9.23;8.43;;;19.00;99.90;;;;;;5020109;28;20491;-52
2023/08/19 04:30:50;;;;;;;9.73;8.87;;;19.00;99.90;;;;;;5014554;28;20582;-52
2023/08/19 04:33:16;;;;;;;18.80;8.33;;;19.00;99.90;;;;;;5014051;28;20460;-51
2023/08/19 04:35:44;;;;;;;10.73;8.40;;;19.00;99.90;;;;;;5006370;28;20440;-53
2023/08/19 04:38:11;;;;;;;8.70;7.87;;;19.00;99.90;;;;;;5014699;28;20496;-53
2023/08/19 04:40:37;;;;;;;8.30;7.60;;;19.10;99.90;;;;;;5012065;28;20479;-52
2023/08/19 04:43:04;;;;;;;10.83;8.80;;;19.10;99.90;;;;;;5006859;28;20494;-53
2023/08/19 04:45:31;;;;;;;16.40;8.30;;;19.20;99.90;;;;;;5014822;28;20447;-52
2023/08/19 04:47:58;;;;;;;11.70;8.87;;;19.20;99.90;;;;;;5015465;28;21019;-53
2023/08/19 04:50:24;;;;;;;12.87;9.50;;;19.30;99.90;;;;;;5013557;28;20598;-56
2023/08/19 04:52:52;;;;;;;12.43;9.07;;;19.30;99.90;;;;;;5004865;28;20467;-52
2023/08/19 04:55:19;;;;;;;9.90;9.03;;;19.40;99.90;;;;;;5015686;28;20502;-51
2023/08/19 04:57:45;;;;;;;8.90;8.10;;;19.40;99.90;;;;;;5011891;28;20977;-52
2023/08/19 05:00:13;;;;;;;10.30;9.40;;;19.50;99.90;;;;;;5010296;28;20515;-53
2023/08/19 05:02:40;;;;;;;13.30;8.90;;;19.60;99.90;;;;;;5013995;28;20954;-52
2023/08/19 05:05:07;;;;;;;9.67;8.97;;;19.60;99.90;;;;;;5011777;28;20490;-53
2023/08/19 05:07:34;;;;;;;10.50;8.97;;;19.70;99.90;;;;;;5011775;28;20459;-53
2023/08/19 05:10:02;;;;;;;10.80;9.67;;;19.70;99.90;;;;;;5012667;28;20841;-53
2023/08/19 05:12:29;;;;;;;10.50;9.50;;;19.70;99.90;;;;;;5013641;28;20459;-54
2023/08/19 05:14:55;;;;;;;11.10;8.90;;;19.80;99.90;;;;;;5012243;28;20499;-52
2023/08/19 05:17:22;;;;;;;11.00;9.17;;;19.80;99.90;;;;;;5006827;28;20949;-52
2023/08/19 05:19:48;;;;;;;10.20;9.20;;;19.80;99.90;;;;;;5014992;28;20530;-53
2023/08/19 05:22:15;;;;;;;14.20;9.73;;;19.90;99.90;;;;;;5012407;28;20491;-53
2023/08/19 05:24:41;;;;;;;10.77;9.67;;;19.90;99.90;;;;;;5013966;28;20475;-52
2023/08/19 05:27:09;;;;;;;12.30;9.60;;;20.00;99.90;;;;;;5007680;28;20467;-51
2023/08/19 05:29:36;;;;;;;14.23;10.40;;;20.00;99.90;;;;;;5027164;28;20487;-53
2023/08/19 05:32:04;;;;;;;10.77;9.77;;;20.10;99.90;;;;;;5013203;28;20520;-53
2023/08/19 05:34:30;;;;;;;11.60;9.73;;;20.10;99.90;;;;;;5008677;28;20522;-52
2023/08/19 05:36:57;;;;;;;15.40;10.40;;;20.10;99.90;;;;;;5013379;28;20459;-53
2023/08/19 05:39:23;;;;;;;10.63;9.63;;;20.10;99.90;;;;;;5014037;28;20812;-52
2023/08/19 05:41:50;;;;;;;14.60;9.27;;;20.20;99.90;;;;;;5012806;28;21159;-53
2023/08/19 05:44:18;;;;;;;11.53;8.90;;;20.20;99.90;;;;;;5011335;28;20495;-53
2023/08/19 05:46:44;;;;;;;10.23;9.10;;;20.20;99.90;;;;;;5011575;28;20526;-52
2023/08/19 05:49:11;;;;;;;12.20;10.60;;;20.20;99.90;;;;;;5014155;28;20444;-53
2023/08/19 05:51:37;;;;;;;10.83;9.83;;;20.20;99.90;;;;;;5006072;28;20981;-53
2023/08/19 05:54:04;;;;;;;11.20;10.20;;;20.20;99.90;;;;;;5011663;28;20491;-53
2023/08/19 05:56:31;;;;;;;12.00;10.90;;;20.30;99.90;;;;;;5018848;28;20499;-52
2023/08/19 05:58:57;;;;;;;12.30;10.40;;;20.30;1.40;;;;;;5021118;28;20517;-53
2023/08/19 06:01:25;;;;;;;10.53;9.63;;;20.30;99.90;;;;;;5011091;28;20487;-53
2023/08/19 06:03:52;;;;;;;13.33;10.17;;;20.30;99.90;;;;;;5016645;28;20506;-52
2023/08/19 06:06:19;;;;;;;9.97;9.17;;;20.30;99.90;;;;;;5015004;28;21019;-52
2023/08/19 06:08:45;;;;;;;11.37;10.27;;;20.30;99.90;;;;;;5009950;28;20439;-52
2023/08/19 06:11:12;;;;;;;15.77;10.60;;;20.30;99.90;;;;;;5011985;28;20541;-53
2023/08/19 06:13:38;;;;;;;18.47;10.93;;;20.40;99.90;;;;;;5012701;28;20518;-51
2023/08/19 06:16:06;;;;;;;19.30;11.40;;;20.40;99.90;;;;;;5011420;28;20495;-52
2023/08/19 06:18:34;;;;;;;11.80;10.67;;;20.40;99.90;;;;;;5016072;28;20443;-51
2023/08/19 06:21:03;;;;;;;11.20;9.97;;;20.40;99.90;;;;;;5015959;28;20531;-52
2023/08/19 06:23:29;;;;;;;12.07;10.83;;;20.40;99.90;;;;;;5011282;28;20471;-52
2023/08/19 06:25:56;;;;;;;13.63;10.93;;;20.40;99.90;;;;;;5000759;28;20488;-52
2023/08/19 06:28:22;;;;;;;14.27;12.13;;;20.40;99.90;;;;;;5016201;28;20462;-52
2023/08/19 06:30:50;;;;;;;10.83;9.93;;;20.40;99.90;;;;;;5010957;28;20518;-52
2023/08/19 06:33:17;;;;;;;12.73;11.43;;;20.50;99.90;;;;;;5009439;28;20456;-53
2023/08/19 06:35:48;;;;;;;12.07;10.90;;;20.50;99.90;;;;;;5006026;28;20872;-52
2023/08/19 06:38:18;;;;;;;15.03;12.40;;;20.60;99.90;;;;;;5012125;28;20448;-52
2023/08/19 06:40:54;;;;;;;13.47;12.07;;;20.60;99.90;;;;;;5005643;28;20535;-52
2023/08/19 06:43:22;;;;;;;15.40;12.90;;;20.60;99.90;;;;;;5005124;28;20448;-54
2023/08/19 06:45:49;;;;;;;12.80;11.50;;;20.70;99.90;;;;;;5004316;28;20954;-52
2023/08/19 06:48:17;;;;;;;12.90;11.70;;;20.80;99.90;;;;;;5010951;28;20996;-51
2023/08/19 06:50:45;;;;;;;13.37;12.07;;;20.80;99.90;;;;;;5004335;28;20487;-52
2023/08/19 06:53:12;;;;;;;13.70;12.17;;;20.90;99.90;;;;;;5012941;28;20444;-51
2023/08/19 06:55:42;;;;;;;14.60;12.30;;;21.10;99.90;;;;;;5005488;28;21002;-54
2023/08/19 06:58:16;;;;;;;14.40;12.83;;;21.20;99.90;;;;;;5014461;28;20520;-52
2023/08/19 07:00:44;;;;;;;22.50;12.57;;;21.40;99.90;;;;;;5007733;28;20467;-54
2023/08/19 07:03:12;;;;;;;14.53;13.13;;;21.50;99.90;;;;;;5012820;28;20897;-54
2023/08/19 07:05:40;;;;;;;16.77;13.27;;;21.60;99.90;;;;;;5010249;28;20491;-52
2023/08/19 07:08:11;;;;;;;13.60;12.20;;;21.70;99.90;;;;;;5010654;28;20463;-54
2023/08/19 07:10:38;;;;;;;15.70;13.00;;;21.90;99.90;;;;;;5011912;28;20483;-52
2023/08/19 07:13:05;;;;;;;13.83;12.50;;;21.90;99.90;;;;;;5011777;28;20590;-52
2023/08/19 07:15:33;;;;;;;15.87;14.23;;;22.10;99.90;;;;;;5013227;28;20460;-53
2023/08/19 07:18:01;;;;;;;15.63;12.70;;;22.40;99.90;;;;;;5007382;28;20495;-53
2023/08/19 07:20:28;;;;;;;14.17;12.50;;;22.60;99.90;;;;;;5009110;28;20526;-52
2023/08/19 07:22:55;;;;;;;13.70;12.40;;;22.80;99.90;;;;;;5012452;28;21000;-52
2023/08/19 07:25:24;;;;;;;12.70;11.30;;;22.90;99.90;;;;;;5000083;28;20476;-52
2023/08/19 07:27:52;;;;;;;27.97;12.30;;;23.00;99.90;;;;;;5003174;28;20467;-53
2023/08/19 07:30:19;;;;;;;13.43;12.23;;;23.00;99.90;;;;;;5015082;28;20518;-51
2023/08/19 07:32:46;;;;;;;12.93;11.63;;;23.10;99.90;;;;;;5009819;28;20514;-51
2023/08/19 07:35:13;;;;;;;13.90;12.40;;;23.10;99.90;;;;;;5010023;28;20456;-52
2023/08/19 07:37:39;;;;;;;16.83;13.40;;;23.30;99.90;;;;;;5006797;28;20546;-52
2023/08/19 07:40:09;;;;;;;13.67;12.37;;;23.30;99.90;;;;;;5011542;28;20522;-53
2023/08/19 07:42:37;;;;;;;13.60;12.27;;;23.30;23.10;;;;;;5012114;28;20489;-52
2023/08/19 07:45:05;;;;;;;12.90;11.30;;;23.50;30.40;;;;;;5006354;28;20547;-51
2023/08/19 07:47:32;;;;;;;13.60;12.40;;;23.60;29.90;;;;;;5004414;28;20447;-52
2023/08/19 07:49:58;;;;;;;12.80;11.60;;;23.80;28.90;;;;;;5007267;28;20468;-53
2023/08/19 07:52:25;;;;;;;13.37;12.17;;;23.80;33.30;;;;;;5009697;28;20578;-51
2023/08/19 07:54:51;;;;;;;14.50;12.20;;;23.90;29.40;;;;;;5010652;28;20468;-51
2023/08/19 07:57:18;;;;;;;12.03;10.40;;;23.90;47.60;;;;;;5012738;28;20518;-52
2023/08/19 07:59:46;;;;;;;13.27;11.73;;;24.10;43.30;;;;;;5011696;28;20534;-53
2023/08/19 08:02:13;;;;;;;18.87;11.97;;;24.30;51.80;;;;;;4999679;28;20503;-52
2023/08/19 08:04:40;;;;;;;13.63;12.30;;;24.50;58.00;;;;;;5001663;28;20471;-52
2023/08/19 08:07:07;;;;;;;18.13;12.93;;;24.50;55.40;;;;;;5010190;28;20462;-53
2023/08/19 08:09:33;;;;;;;13.53;12.03;;;24.70;76.70;;;;;;5020870;28;20529;-52
2023/08/19 08:12:00;;;;;;;14.77;11.80;;;24.90;66.60;;;;;;5009143;28;20476;-53
2023/08/19 08:14:27;;;;;;;14.03;12.70;;;25.00;63.50;;;;;;5004073;28;20543;-54
2023/08/19 08:16:56;;;;;;;13.80;12.50;;;25.00;70.80;;;;;;5012593;28;20490;-53
2023/08/19 08:19:25;;;;;;;13.97;12.57;;;25.20;67.30;;;;;;4999391;28;20576;-54
2023/08/19 08:21:52;;;;;;;17.80;12.00;;;25.40;78.40;;;;;;5007638;28;20467;-53
2023/08/19 08:24:18;;;;;;;15.87;11.80;;;25.50;85.00;;;;;;5006470;28;20992;-54
2023/08/19 08:26:45;;;;;;;16.73;13.10;;;25.60;88.00;;;;;;5011892;28;20475;-54
2023/08/19 08:29:11;;;;;;;13.47;11.50;;;25.70;92.90;;;;;;5016570;28;20498;-53
2023/08/19 08:31:38;;;;;;;13.80;12.30;;;25.70;90.20;;;;;;5003444;28;20498;-53
2023/08/19 08:34:06;;;;;;;13.43;12.13;;;25.80;95.20;;;;;;5004171;28;20491;-53
2023/08/19 08:36:33;;;;;;;14.50;12.40;;;25.80;99.70;;;;;;5010306;28;20825;-52
2023/08/19 08:38:59;;;;;;;12.50;10.60;;;26.00;99.90;;;;;;5013879;28;20870;-52
2023/08/19 08:41:27;;;;;;;13.53;12.33;;;26.00;96.30;;;;;;5008811;28;20491;-52
2023/08/19 08:43:55;;;;;;;12.90;11.60;;;26.10;99.90;;;;;;5001604;28;20506;-54
2023/08/19 08:46:23;;;;;;;13.33;10.87;;;26.20;99.90;;;;;;5015032;28;20478;-53
2023/08/19 08:48:52;;;;;;;13.10;11.70;;;26.30;99.90;;;;;;5011209;28;20984;-53
2023/08/19 08:51:22;;;;;;;18.73;11.00;;;26.40;99.90;;;;;;5008037;28;20583;-52
2023/08/19 08:53:49;;;;;;;15.77;11.23;;;26.50;99.90;;;;;;4996689;28;20958;-54
2023/08/19 08:56:16;;;;;;;11.73;10.53;;;26.60;99.90;;;;;;5007303;28;20463;-53
2023/08/19 08:58:43;;;;;;;11.93;9.87;;;26.70;99.90;;;;;;5007721;28;20502;-54
2023/08/19 09:01:11;;;;;;;28.80;10.10;;;26.90;99.90;;;;;;5009118;28;20518;-54
2023/08/19 09:03:40;;;;;;;18.23;10.20;;;27.00;99.90;;;;;;5013670;28;20487;-54
2023/08/19 09:06:13;;;;;;;13.10;9.10;;;27.20;99.90;;;;;;5012460;28;20458;-54
2023/08/19 09:08:46;;;;;;;10.10;9.03;;;27.30;99.90;;;;;;5008878;28;20980;-54
2023/08/19 09:11:19;;;;;;;10.67;9.57;;;27.40;99.90;;;;;;5013501;28;20460;-54
2023/08/19 09:13:48;;;;;;;10.10;9.20;;;27.60;99.90;;;;;;5011493;28;20490;-55
2023/08/19 09:16:15;;;;;;;12.07;8.73;;;27.70;99.90;;;;;;5010960;28;20487;-54
2023/08/19 09:18:42;;;;;;;9.93;8.93;;;27.80;99.90;;;;;;5007398;28;20981;-54
2023/08/19 09:21:09;;;;;;;12.80;8.63;;;28.20;99.90;;;;;;5041306;23;20537;-60
2023/08/19 09:23:39;;;;;;;8.93;7.93;;;28.70;99.90;;;;;;5049898;28;20540;-59
2023/08/19 09:26:10;;;;;;;9.70;7.70;;;29.00;56.20;;;;;;5049054;28;20489;-59
2023/08/19 09:28:37;;;;;;;9.27;8.33;;;29.00;56.70;;;;;;5050805;28;20465;-58
2023/08/19 09:31:18;;;;;;;9.20;8.40;;;29.00;43.40;;;;;;5052884;28;20863;-58
2023/08/19 09:33:44;;;;;;;11.30;8.30;;;29.20;39.60;;;;;;5051147;28;20473;-60
2023/08/19 09:36:11;;;;;;;9.13;7.93;;;29.00;49.60;;;;;;5044594;28;20457;-58
2023/08/19 09:38:37;;;;;;;16.70;8.27;;;28.90;51.80;;;;;;5052896;28;20457;-58
2023/08/19 09:41:06;;;;;;;10.73;8.50;;;28.90;45.90;;;;;;5052000;28;21041;-58
2023/08/19 09:43:38;;;;;;;10.30;7.67;;;29.00;59.60;;;;;;5052635;28;20829;-58
2023/08/19 09:46:05;;;;;;;8.80;7.10;;;29.70;65.00;;;;;;5060301;28;20531;-60
2023/08/19 09:48:31;;;;;;;11.00;9.10;;;29.60;70.50;;;;;;5053806;28;20434;-58
2023/08/19 09:50:58;;;;;;;15.23;7.90;;;29.70;67.90;;;;;;5047774;28;20924;-58
2023/08/19 09:53:28;;;;;;;19.33;9.00;;;29.70;66.90;;;;;;5056641;28;20515;-58
2023/08/19 09:55:55;;;;;;;11.60;7.50;;;29.60;75.50;;;;;;5058982;28;20490;-58
2023/08/19 09:58:21;;;;;;;9.33;7.47;;;29.60;77.20;;;;;;5050956;28;20561;-58
2023/08/19 10:00:49;;;;;;;9.20;7.47;;;29.90;77.40;;;;;;5053342;28;20965;-58
2023/08/19 10:03:16;;;;;;;8.47;7.70;;;29.90;82.70;;;;;;5053275;28;20489;-58
2023/08/19 10:05:45;;;;;;;7.27;6.57;;;30.20;86.10;;;;;;5048106;28;20465;-58
2023/08/19 10:08:18;;;;;;;8.03;7.13;;;30.20;99.80;;;;;;5043918;28;20509;-58
2023/08/19 10:10:46;;;;;;;22.83;7.67;;;30.40;99.90;;;;;;5050057;28;20895;-52
2023/08/19 10:13:13;;;;;;;7.63;7.03;;;30.40;99.90;;;;;;5049828;28;20586;-58
2023/08/19 10:15:42;;;;;;;14.73;7.60;;;30.30;99.90;;;;;;5052195;28;20519;-58
2023/08/19 10:18:15;;;;;;;16.53;7.17;;;31.20;99.90;;;;;;5052656;28;20500;-58
2023/08/19 10:20:44;;;;;;;10.30;8.33;;;30.80;99.90;;;;;;5051844;28;20573;-57
2023/08/19 10:23:12;;;;;;;10.90;7.10;;;31.20;99.90;;;;;;5051699;28;20545;-58
2023/08/19 10:25:42;;;;;;;10.80;8.17;;;31.30;99.90;;;;;;5050747;28;20462;-58
2023/08/19 10:28:11;;;;;;;10.30;6.50;;;31.20;99.90;;;;;;5054098;28;20518;-60
2023/08/19 10:30:38;;;;;;;8.30;6.60;;;31.20;99.90;;;;;;5063782;28;20485;-59
2023/08/19 10:33:25;;;;;;;14.07;7.50;;;30.90;99.90;;;;;;5051286;28;20481;-57
2023/08/19 10:36:03;;;;;;;7.10;6.50;;;31.00;99.90;;;;;;5049817;28;20453;-58
2023/08/19 10:38:43;;;;;;;16.67;6.93;;;32.00;99.90;;;;;;5050494;28;20567;-58
2023/08/19 10:41:28;;;;;;;7.10;6.43;;;32.40;99.90;;;;;;5050991;28;20538;-57
2023/08/19 10:43:56;;;;;;;16.93;6.40;;;32.20;99.90;;;;;;5049276;28;20985;-56
2023/08/19 10:46:34;;;;;;;7.37;6.77;;;32.00;99.90;;;;;;5050934;28;20872;-56
2023/08/19 10:49:02;;;;;;;7.53;6.40;;;33.30;99.90;;;;;;5051697;28;20472;-56
2023/08/19 10:51:51;;;;;;;7.33;6.37;;;34.10;99.90;;;;;;5051931;28;20513;-56
2023/08/19 10:54:30;;;;;;;6.20;5.70;;;33.20;99.90;;;;;;5065012;28;20453;-57
2023/08/19 10:57:13;;;;;;;6.50;5.80;;;32.60;99.90;;;;;;5063679;28;20884;-57
2023/08/19 10:59:41;;;;;;;10.87;6.33;;;33.00;99.90;;;;;;5051185;28;20929;-57
2023/08/19 11:02:09;;;;;;;6.57;5.90;;;33.40;99.90;;;;;;5052747;28;20444;-57
2023/08/19 11:04:39;;;;;;;7.30;6.60;;;33.80;99.90;;;;;;5047393;28;20454;-54
2023/08/19 11:07:08;;;;;;;6.90;6.20;;;33.30;99.90;;;;;;5053081;28;20474;-55
2023/08/19 11:09:35;;;;;;;6.70;6.20;;;34.00;99.90;;;;;;5051206;28;20560;-55
2023/08/19 11:12:02;;;;;;;10.33;6.17;;;34.20;99.90;;;;;;5048155;28;20580;-55
2023/08/19 11:14:29;;;;;;;13.40;5.70;;;33.00;99.90;;;;;;5049865;28;20540;-55
2023/08/19 11:16:57;;;;;;;13.00;6.70;;;33.30;99.90;;;;;;5050245;28;20489;-56
2023/08/19 11:19:24;;;;;;;19.40;5.70;;;32.90;99.90;;;;;;5049052;28;20472;-55
2023/08/19 11:21:51;;;;;;;9.37;6.60;;;32.70;99.90;;;;;;5043811;28;20493;-54
2023/08/19 11:24:19;;;;;;;7.10;6.50;;;32.50;99.90;;;;;;5048770;28;20523;-54
2023/08/19 11:26:48;;;;;;;7.30;6.60;;;33.10;99.90;;;;;;5048823;28;20466;-54
2023/08/19 11:29:14;;;;;;;5.90;5.47;;;33.70;99.90;;;;;;5050580;28;20465;-54
2023/08/19 11:31:42;;;;;;;10.90;7.00;;;33.50;99.90;;;;;;5050629;28;20524;-56
2023/08/19 11:34:10;;;;;;;6.20;5.60;;;32.50;99.90;;;;;;5046117;28;20926;-54
2023/08/19 11:36:37;;;;;;;7.23;5.60;;;32.30;99.90;;;;;;5047877;28;20458;-54
2023/08/19 11:39:05;;;;;;;6.60;6.00;;;32.00;99.90;;;;;;5048721;28;20552;-55
2023/08/19 11:41:33;;;;;;;6.63;6.00;;;31.70;99.90;;;;;;5047507;28;20489;-55
2023/08/19 11:44:01;;;;;;;11.13;5.80;;;31.70;99.90;;;;;;5045679;28;20553;-55
2023/08/19 11:46:29;;;;;;;7.27;6.63;;;31.80;99.90;;;;;;5046900;28;20512;-53
2023/08/19 11:48:57;;;;;;;6.77;6.17;;;31.40;99.90;;;;;;5048002;28;20462;-55
2023/08/19 11:51:23;;;;;;;8.33;6.30;;;31.30;99.90;;;;;;5049709;28;20572;-53
2023/08/19 11:53:52;;;;;;;9.63;6.53;;;31.10;99.90;;;;;;5048640;28;20567;-54
2023/08/19 11:56:20;;;;;;;6.60;5.57;;;31.20;99.90;;;;;;5051002;28;20493;-54
2023/08/19 11:58:50;;;;;;;10.53;5.90;;;31.20;99.90;;;;;;5046917;28;20469;-54
2023/08/19 12:01:17;;;;;;;8.93;5.17;;;31.10;99.90;;;;;;5048980;28;20482;-54
2023/08/19 12:03:45;;;;;;;7.30;5.80;;;31.30;99.90;;;;;;5047986;28;20459;-54
2023/08/19 12:06:12;;;;;;;9.13;5.70;;;31.50;99.90;;;;;;5046914;28;20493;-54
2023/08/19 12:08:40;;;;;;;7.90;5.30;;;31.70;99.90;;;;;;5050726;28;20962;-55
2023/08/19 12:11:07;;;;;;;5.93;5.43;;;31.90;99.90;;;;;;5047320;28;20477;-50
2023/08/19 12:13:33;;;;;;;9.90;5.53;;;31.90;99.90;;;;;;5045099;28;20513;-50
2023/08/19 12:16:01;;;;;;;7.90;5.80;;;32.10;99.90;;;;;;5042043;28;20466;-50
2023/08/19 12:18:30;;;;;;;7.53;5.30;;;32.50;99.90;;;;;;5047056;28;20542;-49
2023/08/19 12:20:57;;;;;;;7.97;6.07;;;32.30;99.90;;;;;;5047452;28;20485;-50
2023/08/19 12:23:23;;;;;;;5.90;5.30;;;32.40;99.90;;;;;;5045077;28;20491;-50
2023/08/19 12:25:51;;;;;;;6.00;5.40;;;32.60;99.90;;;;;;5044944;28;20456;-50
2023/08/19 12:28:19;;;;;;;9.50;6.20;;;32.80;99.90;;;;;;5047643;28;20504;-50
2023/08/19 12:30:45;;;;;;;6.50;5.73;;;32.80;99.90;;;;;;5046735;28;20513;-50
2023/08/19 12:33:15;;;;;;;7.90;5.50;;;32.30;99.90;;;;;;5041714;28;20576;-50
2023/08/19 12:35:44;;;;;;;5.93;5.10;;;32.20;99.90;;;;;;5042791;28;20552;-50
2023/08/19 12:38:12;;;;;;;6.00;5.50;;;32.20;99.90;;;;;;5048744;28;20829;-51
2023/08/19 12:40:39;;;;;;;7.57;5.63;;;32.20;99.90;;;;;;5050941;28;20478;-51
2023/08/19 12:43:05;;;;;;;6.60;6.10;;;32.40;99.90;;;;;;5050656;28;20465;-50